createdAt,value
2018-08-28T00:02:14.364Z,15.13
2018-08-28T00:04:45.050Z,16.27
2018-08-28T00:07:15.971Z,16.23
2018-08-28T00:09:46.652Z,16.47
2018-08-28T00:12:17.397Z,16.07
2018-08-28T00:14:48.127Z,16.70
2018-08-28T00:17:18.769Z,16.47
2018-08-28T00:19:49.396Z,16.13
2018-08-28T00:22:19.892Z,16.60
2018-08-28T00:24:51.314Z,16.17
2018-08-28T00:27:21.898Z,16.00
2018-08-28T00:29:52.569Z,15.73
2018-08-28T00:32:23.178Z,16.47
2018-08-28T00:34:53.738Z,15.13
2018-08-28T00:37:24.317Z,15.20
2018-08-28T00:39:55.082Z,16.17
2018-08-28T00:42:25.397Z,16.20
2018-08-28T00:44:56.312Z,16.63
2018-08-28T00:47:26.942Z,16.63
2018-08-28T00:49:57.676Z,17.17
2018-08-28T00:52:28.483Z,16.10
2018-08-28T00:54:59.229Z,16.63
2018-08-28T00:57:30.981Z,17.17
2018-08-28T01:00:01.988Z,16.53
2018-08-28T01:02:32.851Z,16.70
2018-08-28T01:05:03.593Z,15.70
2018-08-28T01:07:34.455Z,16.90
2018-08-28T01:10:05.043Z,15.07
2018-08-28T01:12:35.760Z,15.50
2018-08-28T01:15:06.904Z,16.43
2018-08-28T01:17:36.716Z,17.07
2018-08-28T01:20:07.098Z,15.57
2018-08-28T01:22:37.815Z,16.73
2018-08-28T01:25:09.158Z,16.17
2018-08-28T01:27:39.922Z,17.50
2018-08-28T01:30:10.539Z,16.47
2018-08-28T01:32:41.692Z,18.10
2018-08-28T01:35:12.541Z,18.57
2018-08-28T01:37:43.054Z,16.73
2018-08-28T01:40:13.717Z,18.13
2018-08-28T01:42:44.164Z,17.47
2018-08-28T01:45:14.469Z,17.70
2018-08-28T01:47:45.279Z,17.90
2018-08-28T01:50:16.250Z,17.83
2018-08-28T01:52:46.932Z,18.27
2018-08-28T01:55:17.728Z,18.43
2018-08-28T01:57:48.177Z,18.13
2018-08-28T02:00:18.626Z,18.90
2018-08-28T02:02:49.284Z,18.40
2018-08-28T02:05:19.897Z,18.63
2018-08-28T02:07:50.541Z,17.70
2018-08-28T02:10:21.084Z,18.67
2018-08-28T02:12:51.236Z,20.10
2018-08-28T02:15:21.453Z,19.60
2018-08-28T02:17:51.824Z,19.67
2018-08-28T02:20:22.591Z,20.43
2018-08-28T02:22:52.994Z,19.17
2018-08-28T02:25:23.254Z,19.33
2018-08-28T02:27:55.301Z,20.63
2018-08-28T02:30:26.669Z,20.17
2018-08-28T02:32:58.402Z,20.13
2018-08-28T02:35:29.076Z,19.07
2018-08-28T02:38:00.599Z,19.40
2018-08-28T02:40:32.242Z,20.47
2018-08-28T02:43:02.920Z,20.50
2018-08-28T02:45:34.283Z,20.67
2018-08-28T02:48:06.980Z,20.47
2018-08-28T02:50:38.145Z,20.83
2018-08-28T02:53:09.581Z,19.90
2018-08-28T02:55:40.831Z,19.83
2018-08-28T02:58:11.036Z,20.17
2018-08-28T03:00:42.662Z,21.37
2018-08-28T03:03:12.742Z,21.30
2018-08-28T03:05:43.160Z,20.37
2018-08-28T03:08:14.104Z,20.50
2018-08-28T03:10:44.726Z,20.43
2018-08-28T03:13:15.488Z,21.20
2018-08-28T03:15:46.254Z,22.20
2018-08-28T03:18:16.740Z,21.53
2018-08-28T03:20:47.689Z,22.40
2018-08-28T03:23:18.742Z,22.93
2018-08-28T03:25:49.880Z,23.47
2018-08-28T03:28:20.560Z,22.53
2018-08-28T03:30:51.278Z,23.00
2018-08-28T03:33:21.728Z,21.17
2018-08-28T03:35:52.452Z,20.07
2018-08-28T03:38:23.165Z,20.83
2018-08-28T03:40:54.038Z,19.60
2018-08-28T03:43:25.180Z,19.93
2018-08-28T03:45:56.791Z,19.87
2018-08-28T03:48:26.768Z,19.00
2018-08-28T03:50:57.496Z,19.10
2018-08-28T03:53:28.228Z,18.70
2018-08-28T03:55:58.915Z,18.57
2018-08-28T03:58:29.497Z,18.87
2018-08-28T04:01:00.186Z,18.13
2018-08-28T04:03:31.204Z,18.40
2018-08-28T04:06:01.805Z,17.47
2018-08-28T04:08:33.010Z,17.47
2018-08-28T04:11:03.773Z,16.70
2018-08-28T04:13:34.304Z,16.70
2018-08-28T04:16:04.082Z,16.00
2018-08-28T04:18:34.338Z,14.47
2018-08-28T04:21:04.944Z,14.80
2018-08-28T04:23:34.824Z,14.43
2018-08-28T04:26:04.883Z,15.33
2018-08-28T04:28:35.060Z,16.40
2018-08-28T04:31:05.213Z,15.80
2018-08-28T04:33:35.368Z,16.97
2018-08-28T04:36:06.436Z,17.57
2018-08-28T04:38:37.073Z,16.80
2018-08-28T04:41:06.942Z,17.43
2018-08-28T04:43:37.438Z,18.37
2018-08-28T04:46:07.528Z,18.37
2018-08-28T04:48:37.501Z,18.93
2018-08-28T04:51:08.475Z,19.33
2018-08-28T04:53:38.911Z,18.87
2018-08-28T04:56:10.193Z,19.13
2018-08-28T04:58:41.560Z,18.80
2018-08-28T05:01:12.262Z,18.30
2018-08-28T05:03:43.041Z,19.27
2018-08-28T05:06:13.129Z,17.50
2018-08-28T05:08:44.416Z,18.87
2018-08-28T05:11:15.532Z,18.67
2018-08-28T05:13:45.711Z,17.43
2018-08-28T05:16:15.600Z,17.73
2018-08-28T05:18:46.510Z,17.63
2018-08-28T05:21:17.311Z,16.43
2018-08-28T05:23:49.227Z,16.33
2018-08-28T05:26:20.144Z,16.40
2018-08-28T05:28:50.473Z,15.60
2018-08-28T05:31:21.700Z,15.97
2018-08-28T05:33:52.693Z,16.40
2018-08-28T05:36:23.694Z,15.87
2018-08-28T05:38:53.481Z,14.73
2018-08-28T05:41:23.401Z,14.87
2018-08-28T05:43:53.297Z,14.27
2018-08-28T05:46:23.168Z,14.43
2018-08-28T05:48:53.319Z,14.27
2018-08-28T05:51:23.612Z,13.77
2018-08-28T05:53:53.568Z,14.60
2018-08-28T05:56:23.495Z,13.17
2018-08-28T05:58:53.461Z,13.27
2018-08-28T06:01:23.243Z,13.97
2018-08-28T06:03:53.142Z,12.20
2018-08-28T06:06:23.127Z,13.00
2018-08-28T06:08:53.046Z,12.73
2018-08-28T06:11:23.051Z,13.53
2018-08-28T06:13:53.152Z,13.20
2018-08-28T06:16:23.005Z,13.30
2018-08-28T06:18:52.864Z,13.10
2018-08-28T06:21:22.935Z,12.63
2018-08-28T06:23:52.789Z,11.83
2018-08-28T06:26:22.767Z,13.03
2018-08-28T06:28:54.730Z,13.10
2018-08-28T06:31:24.838Z,13.17
2018-08-28T06:33:54.909Z,11.57
2018-08-28T06:36:24.986Z,12.37
2018-08-28T06:38:54.819Z,12.13
2018-08-28T06:41:24.724Z,11.30
2018-08-28T06:43:54.736Z,12.27
2018-08-28T06:46:24.529Z,12.30
2018-08-28T06:48:54.579Z,12.83
2018-08-28T06:51:24.643Z,12.50
2018-08-28T06:53:54.560Z,11.50
2018-08-28T06:56:24.486Z,12.33
2018-08-28T06:58:55.184Z,12.70
2018-08-28T07:01:25.016Z,11.80
2018-08-28T07:03:54.973Z,11.03
2018-08-28T07:06:25.081Z,11.37
2018-08-28T07:08:54.914Z,10.97
2018-08-28T07:11:24.873Z,10.60
2018-08-28T07:13:54.788Z,11.53
2018-08-28T07:16:24.600Z,9.67
2018-08-28T07:18:54.479Z,10.77
2018-08-28T07:21:24.393Z,10.83
2018-08-28T07:23:54.470Z,11.20
2018-08-28T07:26:24.540Z,10.57
2018-08-28T07:28:54.466Z,9.83
2018-08-28T07:31:24.541Z,10.00
2018-08-28T07:33:54.541Z,10.30
2018-08-28T07:36:24.374Z,10.23
2018-08-28T07:38:54.255Z,9.70
2018-08-28T07:41:24.187Z,9.43
2018-08-28T07:43:54.135Z,9.63
2018-08-28T07:46:23.993Z,9.60
2018-08-28T07:48:53.914Z,10.20
2018-08-28T07:51:23.851Z,9.43
2018-08-28T07:53:53.874Z,9.10
2018-08-28T07:56:23.606Z,9.93
2018-08-28T07:58:53.504Z,9.50
2018-08-28T08:01:23.372Z,8.83
2018-08-28T08:03:53.374Z,7.93
2018-08-28T08:06:23.422Z,8.00
2018-08-28T08:08:53.339Z,8.97
2018-08-28T08:11:23.197Z,8.83
2018-08-28T08:13:53.264Z,6.83
2018-08-28T08:16:23.114Z,7.10
2018-08-28T08:18:52.882Z,7.90
2018-08-28T08:21:22.811Z,7.73
2018-08-28T08:23:52.916Z,7.70
2018-08-28T08:26:22.925Z,8.10
2018-08-28T08:28:52.895Z,8.70
2018-08-28T08:31:22.842Z,8.67
2018-08-28T08:33:52.925Z,8.23
2018-08-28T08:36:22.901Z,8.80
2018-08-28T08:38:52.655Z,8.07
2018-08-28T08:41:22.444Z,8.20
2018-08-28T08:43:52.346Z,7.80
2018-08-28T08:46:22.238Z,7.60
2018-08-28T08:48:52.275Z,7.87
2018-08-28T08:51:22.282Z,8.20
2018-08-28T08:53:52.234Z,8.40
2018-08-28T08:56:22.288Z,7.60
2018-08-28T08:58:52.111Z,7.67
2018-08-28T09:01:22.146Z,8.10
2018-08-28T09:03:52.075Z,7.50
2018-08-28T09:06:22.028Z,8.57
2018-08-28T09:08:51.930Z,7.53
2018-08-28T09:11:21.914Z,6.93
2018-08-28T09:13:51.811Z,7.30
2018-08-28T09:16:21.739Z,7.30
2018-08-28T09:18:51.541Z,7.40
2018-08-28T09:21:21.460Z,7.47
2018-08-28T09:23:51.305Z,7.23
2018-08-28T09:26:21.143Z,7.37
2018-08-28T09:28:51.181Z,7.27
2018-08-28T09:31:21.112Z,7.73
2018-08-28T09:33:50.985Z,6.90
2018-08-28T09:36:20.899Z,7.53
2018-08-28T09:38:50.886Z,7.60
2018-08-28T09:41:20.759Z,7.03
2018-08-28T09:43:51.024Z,7.17
2018-08-28T09:46:20.984Z,7.67
2018-08-28T09:48:50.898Z,7.73
2018-08-28T09:51:20.860Z,8.00
2018-08-28T09:53:51.082Z,7.63
2018-08-28T09:56:21.072Z,7.70
2018-08-28T09:58:50.904Z,6.97
2018-08-28T10:01:25.719Z,7.33
2018-08-28T10:03:55.806Z,7.30
2018-08-28T10:06:25.821Z,7.20
2018-08-28T10:08:55.896Z,7.27
2018-08-28T10:11:25.830Z,6.83
2018-08-28T10:13:55.869Z,7.00
2018-08-28T10:16:25.764Z,7.20
2018-08-28T10:18:55.622Z,6.47
2018-08-28T10:21:25.583Z,6.63
2018-08-28T10:23:55.655Z,7.23
2018-08-28T10:26:25.665Z,7.00
2018-08-28T10:28:55.655Z,6.87
2018-08-28T10:31:25.538Z,6.43
2018-08-28T10:33:55.428Z,6.20
2018-08-28T10:36:25.432Z,6.70
2018-08-28T10:38:55.222Z,7.07
2018-08-28T10:41:24.983Z,6.63
2018-08-28T10:43:54.800Z,6.20
2018-08-28T10:46:24.838Z,6.87
2018-08-28T10:48:54.764Z,6.60
2018-08-28T10:51:24.759Z,6.20
2018-08-28T10:53:54.730Z,6.33
2018-08-28T10:56:24.697Z,6.00
2018-08-28T10:58:54.446Z,6.17
2018-08-28T11:02:20.207Z,5.83
2018-08-28T11:04:50.061Z,5.77
2018-08-28T11:07:20.054Z,5.37
2018-08-28T11:09:49.906Z,5.65
2018-08-28T11:12:19.922Z,6.43
2018-08-28T11:14:49.894Z,6.60
2018-08-28T11:17:19.803Z,5.35
2018-08-28T11:19:49.820Z,6.37
2018-08-28T11:22:19.773Z,6.92
2018-08-28T11:24:49.640Z,6.05
2018-08-28T11:27:19.598Z,5.80
2018-08-28T11:29:49.646Z,5.40
2018-08-28T11:32:19.570Z,5.80
2018-08-28T11:34:49.427Z,6.42
2018-08-28T11:37:19.245Z,5.47
2018-08-28T11:39:48.964Z,5.45
2018-08-28T11:42:18.736Z,4.87
2018-08-28T11:44:48.739Z,5.30
2018-08-28T11:47:18.647Z,5.25
2018-08-28T11:49:48.692Z,6.03
2018-08-28T11:52:18.814Z,5.50
2018-08-28T11:54:49.024Z,5.78
2018-08-28T11:57:19.022Z,5.65
2018-08-28T11:59:48.880Z,5.80
2018-08-28T12:02:18.781Z,5.58
2018-08-28T12:04:48.714Z,5.67
2018-08-28T12:07:18.693Z,5.20
2018-08-28T12:09:48.633Z,5.92
2018-08-28T12:12:18.573Z,5.30
2018-08-28T12:14:48.495Z,5.17
2018-08-28T12:17:18.403Z,5.45
2018-08-28T12:19:48.589Z,5.30
2018-08-28T12:22:18.574Z,5.03
2018-08-28T12:24:48.459Z,5.20
2018-08-28T12:27:18.297Z,4.97
2018-08-28T12:29:48.272Z,5.20
2018-08-28T12:32:18.135Z,5.10
2018-08-28T12:34:48.062Z,5.20
2018-08-28T12:37:18.069Z,5.72
2018-08-28T12:39:47.954Z,6.33
2018-08-28T12:42:17.747Z,5.45
2018-08-28T12:44:47.887Z,5.60
2018-08-28T12:47:17.802Z,5.40
2018-08-28T12:49:48.029Z,5.22
2018-08-28T12:52:18.085Z,5.87
2018-08-28T12:54:48.152Z,4.97
2018-08-28T12:57:18.411Z,4.80
2018-08-28T12:59:48.352Z,5.03
2018-08-28T13:02:18.457Z,5.72
2018-08-28T13:04:48.402Z,5.67
2018-08-28T13:07:18.402Z,5.25
2018-08-28T13:09:48.333Z,5.08
2018-08-28T13:12:18.750Z,4.28
2018-08-28T13:14:49.024Z,4.83
2018-08-28T13:17:19.011Z,5.15
2018-08-28T13:19:49.371Z,5.10
2018-08-28T13:22:19.566Z,5.58
2018-08-28T13:24:50.042Z,5.08
2018-08-28T13:27:20.495Z,5.28
2018-08-28T13:29:51.159Z,5.22
2018-08-28T13:32:21.569Z,4.87
2018-08-28T13:34:51.749Z,4.90
2018-08-28T13:37:21.788Z,5.35
2018-08-28T13:39:51.768Z,5.20
2018-08-28T13:42:21.969Z,5.60
2018-08-28T13:44:52.209Z,4.92
2018-08-28T13:47:22.056Z,5.00
2018-08-28T13:49:52.155Z,5.10
2018-08-28T13:52:22.324Z,6.92
2018-08-28T13:54:52.445Z,5.50
2018-08-28T13:57:22.345Z,5.25
2018-08-28T13:59:52.450Z,4.92
2018-08-28T14:02:22.848Z,5.30
2018-08-28T14:04:53.510Z,5.50
2018-08-28T14:07:23.963Z,5.40
2018-08-28T14:09:54.141Z,5.05
2018-08-28T14:12:24.588Z,5.15
2018-08-28T14:14:54.978Z,5.40
2018-08-28T14:17:25.101Z,5.20
2018-08-28T14:19:55.555Z,4.65
2018-08-28T14:22:25.994Z,5.33
2018-08-28T14:24:55.860Z,4.87
2018-08-28T14:27:26.239Z,5.20
2018-08-28T14:29:56.762Z,4.67
2018-08-28T14:32:27.198Z,5.62
2018-08-28T14:34:57.881Z,5.55
2018-08-28T14:37:28.055Z,5.05
2018-08-28T14:39:58.045Z,4.92
2018-08-28T14:42:27.933Z,5.30
2018-08-28T14:44:58.371Z,4.65
2018-08-28T14:47:28.691Z,4.83
2018-08-28T14:49:59.021Z,4.65
2018-08-28T14:52:29.364Z,4.67
2018-08-28T14:54:59.608Z,5.05
2018-08-28T14:57:30.027Z,4.90
2018-08-28T15:00:00.034Z,5.53
2018-08-28T15:02:30.282Z,4.92
2018-08-28T15:05:00.550Z,4.90
2018-08-28T15:07:30.779Z,4.62
2018-08-28T15:10:01.153Z,5.10
2018-08-28T15:12:31.633Z,5.00
2018-08-28T15:15:02.052Z,4.87
2018-08-28T15:17:32.303Z,4.72
2018-08-28T15:20:02.422Z,4.90
2018-08-28T15:22:32.926Z,4.87
2018-08-28T15:25:03.650Z,4.70
2018-08-28T15:27:33.945Z,5.30
2018-08-28T15:30:04.290Z,5.28
2018-08-28T15:32:34.501Z,5.35
2018-08-28T15:35:04.829Z,5.80
2018-08-28T15:37:35.265Z,6.00
2018-08-28T15:40:05.491Z,5.25
2018-08-28T15:42:35.676Z,5.25
2018-08-28T15:45:06.007Z,5.40
2018-08-28T15:47:36.117Z,5.47
2018-08-28T15:50:06.443Z,6.53
2018-08-28T15:52:36.849Z,5.28
2018-08-28T15:55:07.560Z,5.42
2018-08-28T15:57:37.892Z,5.65
2018-08-28T16:00:08.354Z,5.45
2018-08-28T16:02:38.565Z,6.10
2018-08-28T16:05:08.863Z,5.83
2018-08-28T16:07:39.185Z,5.33
2018-08-28T16:10:09.484Z,5.85
2018-08-28T16:12:39.902Z,5.72
2018-08-28T16:15:10.071Z,5.80
2018-08-28T16:17:40.372Z,6.00
2018-08-28T16:20:10.514Z,6.33
2018-08-28T16:22:46.011Z,5.80
2018-08-28T16:25:16.368Z,5.92
2018-08-28T16:27:46.640Z,5.97
2018-08-28T16:30:16.885Z,6.05
2018-08-28T16:32:47.034Z,6.03
2018-08-28T16:35:17.397Z,6.07
2018-08-28T16:37:47.685Z,6.00
2018-08-28T16:40:17.588Z,5.97
2018-08-28T16:42:48.053Z,5.83
2018-08-28T16:45:19.402Z,5.83
2018-08-28T16:47:49.439Z,6.03
2018-08-28T16:50:19.941Z,5.10
2018-08-28T16:52:50.097Z,6.20
2018-08-28T16:55:20.340Z,6.50
2018-08-28T16:57:50.447Z,6.33
2018-08-28T17:00:20.540Z,6.83
2018-08-28T17:02:50.573Z,6.87
2018-08-28T17:05:20.693Z,7.17
2018-08-28T17:07:51.186Z,8.23
2018-08-28T17:10:21.537Z,7.80
2018-08-28T17:12:51.851Z,7.83
2018-08-28T17:15:22.282Z,7.80
2018-08-28T17:17:52.564Z,7.87
2018-08-28T17:20:22.729Z,7.77
2018-08-28T17:22:53.113Z,8.00
2018-08-28T17:25:23.204Z,7.83
2018-08-28T17:27:53.477Z,7.83
2018-08-28T17:30:23.918Z,7.93
2018-08-28T17:32:54.276Z,8.20
2018-08-28T17:35:24.573Z,7.83
2018-08-28T17:37:54.757Z,8.17
2018-08-28T17:40:24.890Z,7.97
2018-08-28T17:42:54.964Z,7.13
2018-08-28T17:45:25.348Z,7.97
2018-08-28T17:47:55.603Z,6.90
2018-08-28T17:50:26.265Z,6.33
2018-08-28T17:52:56.671Z,6.97
2018-08-28T17:55:27.118Z,7.77
2018-08-28T17:57:57.438Z,7.53
2018-08-28T18:00:27.590Z,7.47
2018-08-28T18:02:57.892Z,7.73
2018-08-28T18:05:28.255Z,7.93
2018-08-28T18:07:59.867Z,7.60
2018-08-28T18:10:30.401Z,7.57
2018-08-28T18:13:00.834Z,8.00
2018-08-28T18:15:31.387Z,7.10
2018-08-28T18:18:01.744Z,7.60
2018-08-28T18:20:31.710Z,7.33
2018-08-28T18:23:03.015Z,7.20
2018-08-28T18:25:33.844Z,7.50
2018-08-28T18:28:04.237Z,7.47
2018-08-28T18:30:35.853Z,7.87
2018-08-28T18:33:06.195Z,7.50
2018-08-28T18:35:36.669Z,8.20
2018-08-28T18:38:06.981Z,7.37
2018-08-28T18:40:37.154Z,7.97
2018-08-28T18:43:07.495Z,7.87
2018-08-28T18:45:37.624Z,7.83
2018-08-28T18:48:07.722Z,8.10
2018-08-28T18:50:37.686Z,7.93
2018-08-28T18:53:08.077Z,8.63
2018-08-28T18:55:38.452Z,7.93
2018-08-28T18:58:09.136Z,8.60
2018-08-28T19:00:40.170Z,7.67
2018-08-28T19:03:10.420Z,8.40
2018-08-28T19:05:40.710Z,8.10
2018-08-28T19:08:11.041Z,8.17
2018-08-28T19:10:41.394Z,8.90
2018-08-28T19:13:11.949Z,8.63
2018-08-28T19:15:42.951Z,8.00
2018-08-28T19:18:13.232Z,8.53
2018-08-28T19:20:44.015Z,8.17
2018-08-28T19:23:15.152Z,8.93
2018-08-28T19:25:46.046Z,9.00
2018-08-28T19:28:17.005Z,9.73
2018-08-28T19:30:47.794Z,8.80
2018-08-28T19:33:18.151Z,9.70
2018-08-28T19:35:48.419Z,9.27
2018-08-28T19:38:18.641Z,9.40
2018-08-28T19:40:48.717Z,9.83
2018-08-28T19:43:19.105Z,9.57
2018-08-28T19:45:49.665Z,8.70
2018-08-28T19:48:19.833Z,9.93
2018-08-28T19:50:50.356Z,9.73
2018-08-28T19:53:20.819Z,9.70
2018-08-28T19:55:51.353Z,10.27
2018-08-28T19:58:23.825Z,9.77
2018-08-28T20:00:56.088Z,9.17
2018-08-28T20:03:27.672Z,8.73
2018-08-28T20:05:59.467Z,10.10
2018-08-28T20:08:31.513Z,9.00
2018-08-28T20:11:03.746Z,9.87
2018-08-28T20:13:35.340Z,9.40
2018-08-28T20:16:07.502Z,10.27
2018-08-28T20:18:40.317Z,10.50
2018-08-28T20:21:12.034Z,9.57
2018-08-28T20:23:44.403Z,10.57
2018-08-28T20:26:16.145Z,11.53
2018-08-28T20:28:48.461Z,11.73
2018-08-28T20:31:20.928Z,12.77
2018-08-28T20:33:52.926Z,11.20
2018-08-28T20:36:24.790Z,9.57
2018-08-28T20:38:56.815Z,11.27
2018-08-28T20:41:28.924Z,10.73
2018-08-28T20:44:00.914Z,10.60
2018-08-28T20:46:32.690Z,11.33
2018-08-28T20:49:04.066Z,11.27
2018-08-28T20:51:34.913Z,11.30
2018-08-28T20:54:06.630Z,10.67
2018-08-28T20:56:38.064Z,11.17
2018-08-28T20:59:09.768Z,10.57
2018-08-28T21:01:41.411Z,10.10
2018-08-28T21:04:12.835Z,9.40
2018-08-28T21:06:44.356Z,9.90
2018-08-28T21:09:15.755Z,10.13
2018-08-28T21:11:47.491Z,9.97
2018-08-28T21:14:19.357Z,10.00
2018-08-28T21:16:51.533Z,10.03
2018-08-28T21:19:23.142Z,9.93
2018-08-28T21:21:54.545Z,9.90
2018-08-28T21:24:26.442Z,9.80
2018-08-28T21:26:58.080Z,10.53
2018-08-28T21:29:29.633Z,10.70
2018-08-28T21:32:00.814Z,10.00
2018-08-28T21:34:32.134Z,11.13
2018-08-28T21:37:03.833Z,10.93
2018-08-28T21:39:35.482Z,10.63
2018-08-28T21:42:06.731Z,11.37
2018-08-28T21:44:38.428Z,11.40
2018-08-28T21:47:10.104Z,10.80
2018-08-28T21:49:42.257Z,11.73
2018-08-28T21:52:14.209Z,11.53
2018-08-28T21:54:45.684Z,10.43
2018-08-28T21:57:16.601Z,10.93
2018-08-28T21:59:48.718Z,13.60
2018-08-28T22:02:21.196Z,14.10
2018-08-28T22:04:53.367Z,13.80
2018-08-28T22:07:30.429Z,14.30
2018-08-28T22:10:02.010Z,14.67
2018-08-28T22:12:33.667Z,14.43
2018-08-28T22:15:06.273Z,15.60
2018-08-28T22:17:37.877Z,15.23
2018-08-28T22:20:09.293Z,14.20
2018-08-28T22:22:41.001Z,15.10
2018-08-28T22:25:12.022Z,15.07
2018-08-28T22:27:43.562Z,14.30
2018-08-28T22:30:14.733Z,15.17
2018-08-28T22:32:46.744Z,15.33
2018-08-28T22:35:17.952Z,14.60
2018-08-28T22:37:48.978Z,15.30
2018-08-28T22:40:20.326Z,15.43
2018-08-28T22:42:52.342Z,16.17
2018-08-28T22:45:23.809Z,15.13
2018-08-28T22:47:55.799Z,15.33
2018-08-28T22:50:27.196Z,15.70
2018-08-28T22:52:58.638Z,14.60
2018-08-28T22:55:30.598Z,15.50
2018-08-28T22:58:02.649Z,14.10
2018-08-28T23:00:34.403Z,14.10
2018-08-28T23:03:06.497Z,14.40
2018-08-28T23:05:38.367Z,14.13
2018-08-28T23:08:09.713Z,14.07
2018-08-28T23:10:41.732Z,14.17
2018-08-28T23:13:13.251Z,13.67
2018-08-28T23:15:45.204Z,13.70
2018-08-28T23:18:16.571Z,13.93
2018-08-28T23:20:48.227Z,13.73
2018-08-28T23:23:19.713Z,13.87
2018-08-28T23:25:51.523Z,13.63
2018-08-28T23:28:23.417Z,13.73
2018-08-28T23:30:55.270Z,14.00
2018-08-28T23:33:26.398Z,13.30
2018-08-28T23:35:58.127Z,13.20
2018-08-28T23:38:29.785Z,13.47
2018-08-28T23:41:01.759Z,13.37
2018-08-28T23:43:33.309Z,13.20
2018-08-28T23:46:04.101Z,12.27
2018-08-28T23:48:35.779Z,12.60
2018-08-28T23:51:07.199Z,13.07
2018-08-28T23:53:38.197Z,12.20
2018-08-28T23:56:10.200Z,13.17
2018-08-28T23:58:41.792Z,12.80
